NCAR-RAP Real-Time Weather Data

Output produced by METARs form (12 August 2020  18:48 UTC)
found at http://weather.rap.ucar.edu/surface/
 
KCID 121752Z 15005KT 10SM CLR 30/18 A3007
KCID 121652Z 13005KT 10SM CLR 28/17 A3008
KCID 121552Z 00000KT 10SM CLR 27/18 A3007
KCID 121452Z 130005KT 10SM CLR 24/18 A3007
KCID 121352Z 00000KT 10SM CLR 21/18 A3007
KCID 121252Z 14008KT 10SM CLR 19/18 A3008
KCID 121052Z 09008KT 10SM CLR 15/15 A3006
KCID 120952Z 27005KT 10SM CLR 15/15 A3007
KCID 120152Z 00000KT 10SM CLR 21/18 A3001
KCID 120052Z 00000KT 10SM CLR 26/13 A3001
KCID 112352Z 00000KT 10SM CLR 28/13 A3002
KCID 112252Z 09005KT 10SM CLR 27/14 A3003
KCID 112152Z 00000KT 10SM CLR 27/14 A3002